sensor_id;sensor_type;location;lat;lon;timestamp;temperature;humidity
76613;DHT22;65507;48.454;-2.058;2023-04-25T00:00:25;8.70;76.70
76613;DHT22;65507;48.454;-2.058;2023-04-25T00:02:50;8.70;76.80
76613;DHT22;65507;48.454;-2.058;2023-04-25T00:05:17;8.70;76.90
76613;DHT22;65507;48.454;-2.058;2023-04-25T00:07:42;8.70;76.90
76613;DHT22;65507;48.454;-2.058;2023-04-25T00:10:09;8.70;77.00
76613;DHT22;65507;48.454;-2.058;2023-04-25T00:12:36;8.70;77.10
76613;DHT22;65507;48.454;-2.058;2023-04-25T00:15:02;8.60;77.00
76613;DHT22;65507;48.454;-2.058;2023-04-25T00:17:28;8.60;77.00
76613;DHT22;65507;48.454;-2.058;2023-04-25T00:19:54;8.60;77.10
76613;DHT22;65507;48.454;-2.058;2023-04-25T00:22:21;8.60;77.20
76613;DHT22;65507;48.454;-2.058;2023-04-25T00:24:47;8.60;77.20
76613;DHT22;65507;48.454;-2.058;2023-04-25T00:27:13;8.60;77.20
76613;DHT22;65507;48.454;-2.058;2023-04-25T00:29:38;8.60;77.20
76613;DHT22;65507;48.454;-2.058;2023-04-25T00:32:04;8.60;77.20
76613;DHT22;65507;48.454;-2.058;2023-04-25T00:34:30;8.60;77.10
76613;DHT22;65507;48.454;-2.058;2023-04-25T00:36:55;8.60;77.20
76613;DHT22;65507;48.454;-2.058;2023-04-25T00:39:22;8.60;77.20
76613;DHT22;65507;48.454;-2.058;2023-04-25T00:41:48;8.50;77.20
76613;DHT22;65507;48.454;-2.058;2023-04-25T00:44:15;8.50;77.30
76613;DHT22;65507;48.454;-2.058;2023-04-25T00:46:42;8.50;77.40
76613;DHT22;65507;48.454;-2.058;2023-04-25T00:49:08;8.50;77.50
76613;DHT22;65507;48.454;-2.058;2023-04-25T00:51:34;8.40;77.50
76613;DHT22;65507;48.454;-2.058;2023-04-25T00:54:01;8.40;77.50
76613;DHT22;65507;48.454;-2.058;2023-04-25T00:56:27;8.30;77.50
76613;DHT22;65507;48.454;-2.058;2023-04-25T00:58:53;8.30;77.50
76613;DHT22;65507;48.454;-2.058;2023-04-25T01:01:22;8.40;77.60
76613;DHT22;65507;48.454;-2.058;2023-04-25T01:03:49;8.30;77.50
76613;DHT22;65507;48.454;-2.058;2023-04-25T01:06:15;8.30;77.60
76613;DHT22;65507;48.454;-2.058;2023-04-25T01:08:41;8.30;77.70
76613;DHT22;65507;48.454;-2.058;2023-04-25T01:11:07;8.00;77.50
76613;DHT22;65507;48.454;-2.058;2023-04-25T01:13:33;8.30;77.60
76613;DHT22;65507;48.454;-2.058;2023-04-25T01:16:00;8.40;77.50
76613;DHT22;65507;48.454;-2.058;2023-04-25T01:18:26;8.40;77.50
76613;DHT22;65507;48.454;-2.058;2023-04-25T01:20:53;8.40;77.50
76613;DHT22;65507;48.454;-2.058;2023-04-25T01:23:22;8.40;77.50
76613;DHT22;65507;48.454;-2.058;2023-04-25T01:25:49;8.40;77.50
76613;DHT22;65507;48.454;-2.058;2023-04-25T01:28:15;8.40;77.50
76613;DHT22;65507;48.454;-2.058;2023-04-25T01:30:41;8.40;77.50
76613;DHT22;65507;48.454;-2.058;2023-04-25T01:33:08;8.40;77.50
76613;DHT22;65507;48.454;-2.058;2023-04-25T01:35:34;8.50;77.60
76613;DHT22;65507;48.454;-2.058;2023-04-25T01:38:00;8.40;77.50
76613;DHT22;65507;48.454;-2.058;2023-04-25T01:40:27;8.40;77.50
76613;DHT22;65507;48.454;-2.058;2023-04-25T01:42:53;8.40;77.60
76613;DHT22;65507;48.454;-2.058;2023-04-25T01:45:20;8.40;77.70
76613;DHT22;65507;48.454;-2.058;2023-04-25T01:47:45;8.40;77.70
76613;DHT22;65507;48.454;-2.058;2023-04-25T01:50:15;8.40;77.80
76613;DHT22;65507;48.454;-2.058;2023-04-25T01:52:41;8.40;77.80
76613;DHT22;65507;48.454;-2.058;2023-04-25T01:55:07;8.40;77.80
76613;DHT22;65507;48.454;-2.058;2023-04-25T01:57:33;8.40;77.90
76613;DHT22;65507;48.454;-2.058;2023-04-25T02:00:01;8.40;77.90
76613;DHT22;65507;48.454;-2.058;2023-04-25T02:02:28;8.40;77.90
76613;DHT22;65507;48.454;-2.058;2023-04-25T02:04:53;8.40;77.90
76613;DHT22;65507;48.454;-2.058;2023-04-25T02:07:22;8.40;78.00
76613;DHT22;65507;48.454;-2.058;2023-04-25T02:09:48;8.40;78.00
76613;DHT22;65507;48.454;-2.058;2023-04-25T02:12:13;8.40;78.10
76613;DHT22;65507;48.454;-2.058;2023-04-25T02:14:39;8.40;78.20
76613;DHT22;65507;48.454;-2.058;2023-04-25T02:17:05;8.40;78.30
76613;DHT22;65507;48.454;-2.058;2023-04-25T02:19:31;8.40;78.40
76613;DHT22;65507;48.454;-2.058;2023-04-25T02:21:56;8.40;78.40
76613;DHT22;65507;48.454;-2.058;2023-04-25T02:24:23;8.40;78.40
76613;DHT22;65507;48.454;-2.058;2023-04-25T02:26:49;8.40;78.50
76613;DHT22;65507;48.454;-2.058;2023-04-25T02:29:15;8.30;78.40
76613;DHT22;65507;48.454;-2.058;2023-04-25T02:31:41;8.40;78.50
76613;DHT22;65507;48.454;-2.058;2023-04-25T02:34:06;8.40;78.50
76613;DHT22;65507;48.454;-2.058;2023-04-25T02:36:32;8.40;78.50
76613;DHT22;65507;48.454;-2.058;2023-04-25T02:39:00;8.30;78.50
76613;DHT22;65507;48.454;-2.058;2023-04-25T02:41:26;8.40;78.60
76613;DHT22;65507;48.454;-2.058;2023-04-25T02:43:52;8.40;78.60
76613;DHT22;65507;48.454;-2.058;2023-04-25T02:46:17;8.30;78.60
76613;DHT22;65507;48.454;-2.058;2023-04-25T02:48:43;8.40;78.70
76613;DHT22;65507;48.454;-2.058;2023-04-25T02:51:09;8.30;78.70
76613;DHT22;65507;48.454;-2.058;2023-04-25T02:53:34;8.30;78.70
76613;DHT22;65507;48.454;-2.058;2023-04-25T02:56:00;8.30;78.80
76613;DHT22;65507;48.454;-2.058;2023-04-25T02:58:26;8.30;78.80
76613;DHT22;65507;48.454;-2.058;2023-04-25T03:00:52;8.30;78.80
76613;DHT22;65507;48.454;-2.058;2023-04-25T03:03:18;8.30;78.80
76613;DHT22;65507;48.454;-2.058;2023-04-25T03:05:49;8.40;78.90
76613;DHT22;65507;48.454;-2.058;2023-04-25T03:08:16;8.40;78.90
76613;DHT22;65507;48.454;-2.058;2023-04-25T03:10:43;8.40;79.00
76613;DHT22;65507;48.454;-2.058;2023-04-25T03:13:09;8.40;78.90
76613;DHT22;65507;48.454;-2.058;2023-04-25T03:15:35;8.40;79.00
76613;DHT22;65507;48.454;-2.058;2023-04-25T03:18:01;8.40;79.00
76613;DHT22;65507;48.454;-2.058;2023-04-25T03:20:27;8.50;79.00
76613;DHT22;65507;48.454;-2.058;2023-04-25T03:22:53;8.50;79.00
76613;DHT22;65507;48.454;-2.058;2023-04-25T03:25:19;8.50;79.20
76613;DHT22;65507;48.454;-2.058;2023-04-25T03:27:44;8.50;79.20
76613;DHT22;65507;48.454;-2.058;2023-04-25T03:30:10;8.50;79.20
76613;DHT22;65507;48.454;-2.058;2023-04-25T03:32:36;8.50;79.20
76613;DHT22;65507;48.454;-2.058;2023-04-25T03:35:02;8.50;79.10
76613;DHT22;65507;48.454;-2.058;2023-04-25T03:37:28;8.60;79.20
76613;DHT22;65507;48.454;-2.058;2023-04-25T03:39:53;8.60;79.20
76613;DHT22;65507;48.454;-2.058;2023-04-25T03:42:19;8.60;80.10
76613;DHT22;65507;48.454;-2.058;2023-04-25T03:44:45;8.70;79.20
76613;DHT22;65507;48.454;-2.058;2023-04-25T03:47:10;8.60;79.10
76613;DHT22;65507;48.454;-2.058;2023-04-25T03:49:36;8.60;79.20
76613;DHT22;65507;48.454;-2.058;2023-04-25T03:52:02;8.90;79.40
76613;DHT22;65507;48.454;-2.058;2023-04-25T03:54:28;8.60;79.30
76613;DHT22;65507;48.454;-2.058;2023-04-25T03:56:54;8.60;79.40
76613;DHT22;65507;48.454;-2.058;2023-04-25T03:59:19;8.70;79.50
76613;DHT22;65507;48.454;-2.058;2023-04-25T04:01:45;8.70;79.40
76613;DHT22;65507;48.454;-2.058;2023-04-25T04:04:11;8.70;79.50
76613;DHT22;65507;48.454;-2.058;2023-04-25T04:06:36;8.70;79.50
76613;DHT22;65507;48.454;-2.058;2023-04-25T04:09:02;8.70;79.60
76613;DHT22;65507;48.454;-2.058;2023-04-25T04:11:28;8.70;79.50
76613;DHT22;65507;48.454;-2.058;2023-04-25T04:13:54;8.70;79.50
76613;DHT22;65507;48.454;-2.058;2023-04-25T04:16:20;8.70;79.60
76613;DHT22;65507;48.454;-2.058;2023-04-25T04:18:46;8.70;79.60
76613;DHT22;65507;48.454;-2.058;2023-04-25T04:21:11;8.70;79.60
76613;DHT22;65507;48.454;-2.058;2023-04-25T04:23:37;8.70;79.60
76613;DHT22;65507;48.454;-2.058;2023-04-25T04:26:03;8.70;79.70
76613;DHT22;65507;48.454;-2.058;2023-04-25T04:28:28;8.70;79.80
76613;DHT22;65507;48.454;-2.058;2023-04-25T04:30:55;8.70;79.80
76613;DHT22;65507;48.454;-2.058;2023-04-25T04:33:21;8.70;79.80
76613;DHT22;65507;48.454;-2.058;2023-04-25T04:35:47;8.70;79.80
76613;DHT22;65507;48.454;-2.058;2023-04-25T04:38:13;8.80;79.70
76613;DHT22;65507;48.454;-2.058;2023-04-25T04:40:41;8.80;79.60
76613;DHT22;65507;48.454;-2.058;2023-04-25T04:43:08;8.80;79.60
76613;DHT22;65507;48.454;-2.058;2023-04-25T04:45:36;8.90;79.60
76613;DHT22;65507;48.454;-2.058;2023-04-25T04:48:07;8.90;79.50
76613;DHT22;65507;48.454;-2.058;2023-04-25T04:50:32;8.90;79.30
76613;DHT22;65507;48.454;-2.058;2023-04-25T04:52:59;9.00;79.40
76613;DHT22;65507;48.454;-2.058;2023-04-25T04:55:25;9.00;79.40
76613;DHT22;65507;48.454;-2.058;2023-04-25T04:57:51;9.00;79.40
76613;DHT22;65507;48.454;-2.058;2023-04-25T05:00:16;9.00;79.40
76613;DHT22;65507;48.454;-2.058;2023-04-25T05:02:42;9.00;79.50
76613;DHT22;65507;48.454;-2.058;2023-04-25T05:05:11;9.10;79.60
76613;DHT22;65507;48.454;-2.058;2023-04-25T05:07:37;9.10;79.60
76613;DHT22;65507;48.454;-2.058;2023-04-25T05:10:03;9.10;79.50
76613;DHT22;65507;48.454;-2.058;2023-04-25T05:12:28;9.10;80.50
76613;DHT22;65507;48.454;-2.058;2023-04-25T05:14:54;9.10;79.60
76613;DHT22;65507;48.454;-2.058;2023-04-25T05:17:20;9.10;79.60
76613;DHT22;65507;48.454;-2.058;2023-04-25T05:19:45;9.20;79.60
76613;DHT22;65507;48.454;-2.058;2023-04-25T05:22:11;9.20;79.60
76613;DHT22;65507;48.454;-2.058;2023-04-25T05:24:37;9.20;79.50
76613;DHT22;65507;48.454;-2.058;2023-04-25T05:27:02;9.30;79.50
76613;DHT22;65507;48.454;-2.058;2023-04-25T05:29:28;9.30;79.50
76613;DHT22;65507;48.454;-2.058;2023-04-25T05:31:54;9.30;79.50
76613;DHT22;65507;48.454;-2.058;2023-04-25T05:34:19;9.40;79.60
76613;DHT22;65507;48.454;-2.058;2023-04-25T05:36:45;9.40;79.50
76613;DHT22;65507;48.454;-2.058;2023-04-25T05:39:17;9.40;79.40
76613;DHT22;65507;48.454;-2.058;2023-04-25T05:41:43;9.50;79.40
76613;DHT22;65507;48.454;-2.058;2023-04-25T05:44:08;9.50;79.30
76613;DHT22;65507;48.454;-2.058;2023-04-25T05:46:34;9.60;79.20
76613;DHT22;65507;48.454;-2.058;2023-04-25T05:49:00;9.60;79.20
76613;DHT22;65507;48.454;-2.058;2023-04-25T05:51:25;9.60;79.20
76613;DHT22;65507;48.454;-2.058;2023-04-25T05:53:51;9.60;79.20
76613;DHT22;65507;48.454;-2.058;2023-04-25T05:56:17;9.70;79.30
76613;DHT22;65507;48.454;-2.058;2023-04-25T05:58:42;9.70;79.20
76613;DHT22;65507;48.454;-2.058;2023-04-25T06:01:08;9.80;79.10
76613;DHT22;65507;48.454;-2.058;2023-04-25T06:03:34;9.80;79.10
76613;DHT22;65507;48.454;-2.058;2023-04-25T06:06:00;9.80;79.00
76613;DHT22;65507;48.454;-2.058;2023-04-25T06:08:26;9.80;79.10
76613;DHT22;65507;48.454;-2.058;2023-04-25T06:10:52;9.80;79.30
76613;DHT22;65507;48.454;-2.058;2023-04-25T06:13:17;9.80;79.40
76613;DHT22;65507;48.454;-2.058;2023-04-25T06:15:43;9.90;79.30
76613;DHT22;65507;48.454;-2.058;2023-04-25T06:18:09;9.90;79.20
76613;DHT22;65507;48.454;-2.058;2023-04-25T06:20:34;10.00;79.00
76613;DHT22;65507;48.454;-2.058;2023-04-25T06:23:00;10.10;79.10
76613;DHT22;65507;48.454;-2.058;2023-04-25T06:25:28;10.10;79.00
76613;DHT22;65507;48.454;-2.058;2023-04-25T06:27:54;10.10;78.80
76613;DHT22;65507;48.454;-2.058;2023-04-25T06:30:20;10.10;78.80
76613;DHT22;65507;48.454;-2.058;2023-04-25T06:32:49;10.10;79.00
76613;DHT22;65507;48.454;-2.058;2023-04-25T06:35:14;10.10;79.00
76613;DHT22;65507;48.454;-2.058;2023-04-25T06:37:40;10.10;79.00
76613;DHT22;65507;48.454;-2.058;2023-04-25T06:40:06;10.10;79.10
76613;DHT22;65507;48.454;-2.058;2023-04-25T06:42:32;10.20;79.10
76613;DHT22;65507;48.454;-2.058;2023-04-25T06:44:57;10.30;78.90
76613;DHT22;65507;48.454;-2.058;2023-04-25T06:47:23;10.50;78.70
76613;DHT22;65507;48.454;-2.058;2023-04-25T06:49:49;10.70;78.20
76613;DHT22;65507;48.454;-2.058;2023-04-25T06:52:15;10.90;77.70
76613;DHT22;65507;48.454;-2.058;2023-04-25T06:54:43;11.00;77.30
76613;DHT22;65507;48.454;-2.058;2023-04-25T06:57:09;11.20;77.00
76613;DHT22;65507;48.454;-2.058;2023-04-25T06:59:35;11.30;76.80
76613;DHT22;65507;48.454;-2.058;2023-04-25T07:02:00;11.30;76.60
76613;DHT22;65507;48.454;-2.058;2023-04-25T07:04:26;11.40;76.50
76613;DHT22;65507;48.454;-2.058;2023-04-25T07:06:51;11.40;76.40
76613;DHT22;65507;48.454;-2.058;2023-04-25T07:09:17;11.40;76.40
76613;DHT22;65507;48.454;-2.058;2023-04-25T07:11:43;11.40;76.50
76613;DHT22;65507;48.454;-2.058;2023-04-25T07:14:08;11.40;76.60
76613;DHT22;65507;48.454;-2.058;2023-04-25T07:16:34;11.40;76.70
76613;DHT22;65507;48.454;-2.058;2023-04-25T07:19:00;11.40;76.70
76613;DHT22;65507;48.454;-2.058;2023-04-25T07:21:26;11.40;76.70
76613;DHT22;65507;48.454;-2.058;2023-04-25T07:23:51;11.40;76.70
76613;DHT22;65507;48.454;-2.058;2023-04-25T07:26:17;11.40;76.70
76613;DHT22;65507;48.454;-2.058;2023-04-25T07:28:43;11.40;76.70
76613;DHT22;65507;48.454;-2.058;2023-04-25T07:31:09;11.40;76.60
76613;DHT22;65507;48.454;-2.058;2023-04-25T07:33:35;11.40;76.50
76613;DHT22;65507;48.454;-2.058;2023-04-25T07:36:00;11.60;76.30
76613;DHT22;65507;48.454;-2.058;2023-04-25T07:38:26;11.70;76.00
76613;DHT22;65507;48.454;-2.058;2023-04-25T07:40:52;11.90;75.70
76613;DHT22;65507;48.454;-2.058;2023-04-25T07:43:17;12.10;75.20
76613;DHT22;65507;48.454;-2.058;2023-04-25T07:45:46;12.30;74.90
76613;DHT22;65507;48.454;-2.058;2023-04-25T07:48:17;12.40;74.70
76613;DHT22;65507;48.454;-2.058;2023-04-25T07:50:44;12.50;74.50
76613;DHT22;65507;48.454;-2.058;2023-04-25T07:53:09;12.50;74.40
76613;DHT22;65507;48.454;-2.058;2023-04-25T07:55:35;12.60;74.30
76613;DHT22;65507;48.454;-2.058;2023-04-25T07:58:02;12.60;74.10
76613;DHT22;65507;48.454;-2.058;2023-04-25T08:00:29;12.70;74.00
76613;DHT22;65507;48.454;-2.058;2023-04-25T08:02:54;12.70;73.90
76613;DHT22;65507;48.454;-2.058;2023-04-25T08:05:20;12.60;73.90
76613;DHT22;65507;48.454;-2.058;2023-04-25T08:07:46;12.60;74.10
76613;DHT22;65507;48.454;-2.058;2023-04-25T08:10:12;12.60;74.00
76613;DHT22;65507;48.454;-2.058;2023-04-25T08:12:37;12.70;73.90
76613;DHT22;65507;48.454;-2.058;2023-04-25T08:15:04;12.70;73.70
76613;DHT22;65507;48.454;-2.058;2023-04-25T08:17:30;12.80;73.60
76613;DHT22;65507;48.454;-2.058;2023-04-25T08:19:56;12.80;73.50
76613;DHT22;65507;48.454;-2.058;2023-04-25T08:22:22;13.00;73.20
76613;DHT22;65507;48.454;-2.058;2023-04-25T08:24:48;13.10;72.80
76613;DHT22;65507;48.454;-2.058;2023-04-25T08:27:13;13.30;72.40
76613;DHT22;65507;48.454;-2.058;2023-04-25T08:29:39;13.50;72.00
76613;DHT22;65507;48.454;-2.058;2023-04-25T08:32:05;13.60;71.60
76613;DHT22;65507;48.454;-2.058;2023-04-25T08:34:31;13.70;71.50
76613;DHT22;65507;48.454;-2.058;2023-04-25T08:36:56;13.70;71.20
76613;DHT22;65507;48.454;-2.058;2023-04-25T08:39:22;13.70;71.20
76613;DHT22;65507;48.454;-2.058;2023-04-25T08:41:48;13.60;71.20
76613;DHT22;65507;48.454;-2.058;2023-04-25T08:44:14;13.60;71.20
76613;DHT22;65507;48.454;-2.058;2023-04-25T08:46:41;13.70;71.00
76613;DHT22;65507;48.454;-2.058;2023-04-25T08:49:08;13.80;70.80
76613;DHT22;65507;48.454;-2.058;2023-04-25T08:51:44;13.80;70.50
76613;DHT22;65507;48.454;-2.058;2023-04-25T08:54:12;13.80;70.30
76613;DHT22;65507;48.454;-2.058;2023-04-25T08:56:44;13.70;70.50
76613;DHT22;65507;48.454;-2.058;2023-04-25T08:59:11;13.80;70.60
76613;DHT22;65507;48.454;-2.058;2023-04-25T09:01:37;13.70;70.50
76613;DHT22;65507;48.454;-2.058;2023-04-25T09:04:03;13.80;71.30
76613;DHT22;65507;48.454;-2.058;2023-04-25T09:06:30;13.70;70.30
76613;DHT22;65507;48.454;-2.058;2023-04-25T09:09:05;13.80;70.30
76613;DHT22;65507;48.454;-2.058;2023-04-25T09:11:35;13.80;70.10
76613;DHT22;65507;48.454;-2.058;2023-04-25T09:14:20;13.90;70.00
76613;DHT22;65507;48.454;-2.058;2023-04-25T09:19:22;14.10;69.50
76613;DHT22;65507;48.454;-2.058;2023-04-25T09:21:49;14.30;69.20
76613;DHT22;65507;48.454;-2.058;2023-04-25T09:24:15;14.30;69.10
76613;DHT22;65507;48.454;-2.058;2023-04-25T09:26:41;14.40;69.10
76613;DHT22;65507;48.454;-2.058;2023-04-25T09:29:07;14.30;69.10
76613;DHT22;65507;48.454;-2.058;2023-04-25T09:31:33;14.30;69.10
76613;DHT22;65507;48.454;-2.058;2023-04-25T09:33:59;14.20;69.10
76613;DHT22;65507;48.454;-2.058;2023-04-25T09:36:29;14.30;69.20
76613;DHT22;65507;48.454;-2.058;2023-04-25T09:38:55;13.00;68.40
76613;DHT22;65507;48.454;-2.058;2023-04-25T09:41:24;14.20;69.20
76613;DHT22;65507;48.454;-2.058;2023-04-25T09:43:51;14.10;69.20
76613;DHT22;65507;48.454;-2.058;2023-04-25T09:46:17;14.00;69.50
76613;DHT22;65507;48.454;-2.058;2023-04-25T09:48:50;13.90;69.50
76613;DHT22;65507;48.454;-2.058;2023-04-25T09:51:16;13.90;69.60
76613;DHT22;65507;48.454;-2.058;2023-04-25T09:53:46;13.90;69.70
76613;DHT22;65507;48.454;-2.058;2023-04-25T09:56:16;14.00;69.20
76613;DHT22;65507;48.454;-2.058;2023-04-25T09:58:42;14.00;69.00
76613;DHT22;65507;48.454;-2.058;2023-04-25T10:01:09;14.00;69.00
76613;DHT22;65507;48.454;-2.058;2023-04-25T10:03:39;14.00;69.00
76613;DHT22;65507;48.454;-2.058;2023-04-25T10:06:08;14.00;68.70
76613;DHT22;65507;48.454;-2.058;2023-04-25T10:08:35;14.00;68.50
76613;DHT22;65507;48.454;-2.058;2023-04-25T10:11:06;14.00;68.40
76613;DHT22;65507;48.454;-2.058;2023-04-25T10:13:33;14.00;68.20
76613;DHT22;65507;48.454;-2.058;2023-04-25T10:16:01;14.10;68.20
76613;DHT22;65507;48.454;-2.058;2023-04-25T10:18:27;14.10;68.10
76613;DHT22;65507;48.454;-2.058;2023-04-25T10:20:58;14.20;68.10
76613;DHT22;65507;48.454;-2.058;2023-04-25T10:23:25;14.20;68.10
76613;DHT22;65507;48.454;-2.058;2023-04-25T10:25:52;14.10;68.00
76613;DHT22;65507;48.454;-2.058;2023-04-25T10:28:18;14.00;67.90
76613;DHT22;65507;48.454;-2.058;2023-04-25T10:31:11;14.00;68.00
76613;DHT22;65507;48.454;-2.058;2023-04-25T10:33:43;14.00;67.60
76613;DHT22;65507;48.454;-2.058;2023-04-25T10:36:18;14.00;67.80
76613;DHT22;65507;48.454;-2.058;2023-04-25T10:38:45;14.10;67.40
76613;DHT22;65507;48.454;-2.058;2023-04-25T10:41:12;14.10;67.20
76613;DHT22;65507;48.454;-2.058;2023-04-25T10:43:42;14.20;67.00
76613;DHT22;65507;48.454;-2.058;2023-04-25T10:46:27;14.30;66.80
76613;DHT22;65507;48.454;-2.058;2023-04-25T10:48:58;14.30;66.50
76613;DHT22;65507;48.454;-2.058;2023-04-25T10:51:34;14.40;66.60
76613;DHT22;65507;48.454;-2.058;2023-04-25T10:56:39;14.50;67.40
76613;DHT22;65507;48.454;-2.058;2023-04-25T11:01:40;14.50;66.20
76613;DHT22;65507;48.454;-2.058;2023-04-25T11:04:39;14.50;66.00
76613;DHT22;65507;48.454;-2.058;2023-04-25T11:07:08;14.70;65.60
76613;DHT22;65507;48.454;-2.058;2023-04-25T11:09:38;14.90;65.40
76613;DHT22;65507;48.454;-2.058;2023-04-25T11:12:07;14.90;65.10
76613;DHT22;65507;48.454;-2.058;2023-04-25T11:14:33;15.00;65.00
76613;DHT22;65507;48.454;-2.058;2023-04-25T11:17:00;15.00;64.90
76613;DHT22;65507;48.454;-2.058;2023-04-25T11:19:27;14.90;64.90
76613;DHT22;65507;48.454;-2.058;2023-04-25T11:22:02;14.90;64.90
76613;DHT22;65507;48.454;-2.058;2023-04-25T11:24:33;15.00;64.80
76613;DHT22;65507;48.454;-2.058;2023-04-25T11:27:05;15.10;64.60
76613;DHT22;65507;48.454;-2.058;2023-04-25T11:29:34;15.30;64.30
76613;DHT22;65507;48.454;-2.058;2023-04-25T11:32:00;15.40;64.00
76613;DHT22;65507;48.454;-2.058;2023-04-25T11:34:31;15.40;63.80
76613;DHT22;65507;48.454;-2.058;2023-04-25T11:36:58;15.50;63.80
76613;DHT22;65507;48.454;-2.058;2023-04-25T11:39:25;15.50;63.70
76613;DHT22;65507;48.454;-2.058;2023-04-25T11:41:51;15.40;63.80
76613;DHT22;65507;48.454;-2.058;2023-04-25T11:44:18;15.30;64.00
76613;DHT22;65507;48.454;-2.058;2023-04-25T11:46:45;15.20;64.10
76613;DHT22;65507;48.454;-2.058;2023-04-25T11:49:11;15.20;64.10
76613;DHT22;65507;48.454;-2.058;2023-04-25T11:51:47;15.20;64.00
76613;DHT22;65507;48.454;-2.058;2023-04-25T11:54:14;15.20;63.80
76613;DHT22;65507;48.454;-2.058;2023-04-25T11:56:44;15.10;64.00
76613;DHT22;65507;48.454;-2.058;2023-04-25T11:59:10;14.80;63.80
76613;DHT22;65507;48.454;-2.058;2023-04-25T12:01:38;15.00;64.00
76613;DHT22;65507;48.454;-2.058;2023-04-25T12:04:16;15.00;64.00
76613;DHT22;65507;48.454;-2.058;2023-04-25T12:06:44;15.00;63.70
76613;DHT22;65507;48.454;-2.058;2023-04-25T12:09:12;15.00;63.70
76613;DHT22;65507;48.454;-2.058;2023-04-25T12:14:11;15.10;63.20
76613;DHT22;65507;48.454;-2.058;2023-04-25T12:16:45;15.20;63.00
76613;DHT22;65507;48.454;-2.058;2023-04-25T12:19:15;15.30;62.60
76613;DHT22;65507;48.454;-2.058;2023-04-25T12:21:41;15.40;62.40
76613;DHT22;65507;48.454;-2.058;2023-04-25T12:24:33;15.50;62.20
76613;DHT22;65507;48.454;-2.058;2023-04-25T12:27:04;15.60;61.70
76613;DHT22;65507;48.454;-2.058;2023-04-25T12:29:32;15.70;61.90
76613;DHT22;65507;48.454;-2.058;2023-04-25T12:31:58;15.70;61.80
76613;DHT22;65507;48.454;-2.058;2023-04-25T12:34:24;15.80;61.80
76613;DHT22;65507;48.454;-2.058;2023-04-25T12:36:52;15.70;61.70
76613;DHT22;65507;48.454;-2.058;2023-04-25T12:39:18;15.70;61.80
76613;DHT22;65507;48.454;-2.058;2023-04-25T12:41:45;15.60;61.90
76613;DHT22;65507;48.454;-2.058;2023-04-25T12:44:11;15.60;62.40
76613;DHT22;65507;48.454;-2.058;2023-04-25T12:46:37;15.60;62.50
76613;DHT22;65507;48.454;-2.058;2023-04-25T12:49:04;15.60;62.20
76613;DHT22;65507;48.454;-2.058;2023-04-25T12:51:30;15.60;62.00
76613;DHT22;65507;48.454;-2.058;2023-04-25T12:53:58;15.60;62.10
76613;DHT22;65507;48.454;-2.058;2023-04-25T12:56:24;15.60;62.00
76613;DHT22;65507;48.454;-2.058;2023-04-25T12:58:50;15.60;61.80
76613;DHT22;65507;48.454;-2.058;2023-04-25T13:01:16;15.70;61.80
76613;DHT22;65507;48.454;-2.058;2023-04-25T13:03:42;15.70;61.60
76613;DHT22;65507;48.454;-2.058;2023-04-25T13:06:08;15.80;61.50
76613;DHT22;65507;48.454;-2.058;2023-04-25T13:08:33;15.80;61.20
76613;DHT22;65507;48.454;-2.058;2023-04-25T13:11:00;15.80;61.10
76613;DHT22;65507;48.454;-2.058;2023-04-25T13:13:26;15.80;61.10
76613;DHT22;65507;48.454;-2.058;2023-04-25T13:15:52;15.90;61.10
76613;DHT22;65507;48.454;-2.058;2023-04-25T13:18:19;15.90;60.90
76613;DHT22;65507;48.454;-2.058;2023-04-25T13:20:44;15.90;60.80
76613;DHT22;65507;48.454;-2.058;2023-04-25T13:23:11;15.90;60.90
76613;DHT22;65507;48.454;-2.058;2023-04-25T13:25:37;15.90;60.80
76613;DHT22;65507;48.454;-2.058;2023-04-25T13:28:03;15.90;60.70
76613;DHT22;65507;48.454;-2.058;2023-04-25T13:30:29;15.90;60.80
76613;DHT22;65507;48.454;-2.058;2023-04-25T13:32:54;15.90;60.80
76613;DHT22;65507;48.454;-2.058;2023-04-25T13:35:22;15.90;60.80
76613;DHT22;65507;48.454;-2.058;2023-04-25T13:37:48;15.80;60.70
76613;DHT22;65507;48.454;-2.058;2023-04-25T13:40:13;15.80;60.80
76613;DHT22;65507;48.454;-2.058;2023-04-25T13:42:39;15.80;60.70
76613;DHT22;65507;48.454;-2.058;2023-04-25T13:45:06;15.80;60.50
76613;DHT22;65507;48.454;-2.058;2023-04-25T13:47:32;15.80;60.50
76613;DHT22;65507;48.454;-2.058;2023-04-25T13:49:58;15.80;60.40
76613;DHT22;65507;48.454;-2.058;2023-04-25T13:52:24;15.90;60.40
76613;DHT22;65507;48.454;-2.058;2023-04-25T13:54:51;15.80;60.20
76613;DHT22;65507;48.454;-2.058;2023-04-25T13:57:17;15.80;60.30
76613;DHT22;65507;48.454;-2.058;2023-04-25T13:59:43;15.30;60.00
76613;DHT22;65507;48.454;-2.058;2023-04-25T14:02:09;15.80;60.20
76613;DHT22;65507;48.454;-2.058;2023-04-25T14:04:34;15.80;60.20
76613;DHT22;65507;48.454;-2.058;2023-04-25T14:07:01;15.90;60.10
76613;DHT22;65507;48.454;-2.058;2023-04-25T14:09:27;16.00;59.80
76613;DHT22;65507;48.454;-2.058;2023-04-25T14:11:54;16.00;59.70
76613;DHT22;65507;48.454;-2.058;2023-04-25T14:14:21;16.00;59.80
76613;DHT22;65507;48.454;-2.058;2023-04-25T14:16:48;16.00;59.70
76613;DHT22;65507;48.454;-2.058;2023-04-25T14:19:17;16.00;59.70
76613;DHT22;65507;48.454;-2.058;2023-04-25T14:21:43;16.00;59.70
76613;DHT22;65507;48.454;-2.058;2023-04-25T14:24:09;16.00;59.60
76613;DHT22;65507;48.454;-2.058;2023-04-25T14:26:36;16.00;59.50
76613;DHT22;65507;48.454;-2.058;2023-04-25T14:29:05;16.10;59.30
76613;DHT22;65507;48.454;-2.058;2023-04-25T14:31:32;16.10;59.30
76613;DHT22;65507;48.454;-2.058;2023-04-25T14:33:58;16.10;59.20
76613;DHT22;65507;48.454;-2.058;2023-04-25T14:36:24;16.20;59.10
76613;DHT22;65507;48.454;-2.058;2023-04-25T14:38:51;16.30;58.90
76613;DHT22;65507;48.454;-2.058;2023-04-25T14:41:18;16.40;58.70
76613;DHT22;65507;48.454;-2.058;2023-04-25T14:43:43;16.40;58.50
76613;DHT22;65507;48.454;-2.058;2023-04-25T14:46:10;16.50;58.50
76613;DHT22;65507;48.454;-2.058;2023-04-25T14:48:36;16.50;58.50
76613;DHT22;65507;48.454;-2.058;2023-04-25T14:51:02;16.60;58.40
76613;DHT22;65507;48.454;-2.058;2023-04-25T14:53:28;16.60;58.40
76613;DHT22;65507;48.454;-2.058;2023-04-25T14:55:53;16.50;58.30
76613;DHT22;65507;48.454;-2.058;2023-04-25T14:58:19;16.50;58.40
76613;DHT22;65507;48.454;-2.058;2023-04-25T15:00:46;16.40;58.40
76613;DHT22;65507;48.454;-2.058;2023-04-25T15:03:12;16.40;58.40
76613;DHT22;65507;48.454;-2.058;2023-04-25T15:05:39;16.40;58.50
76613;DHT22;65507;48.454;-2.058;2023-04-25T15:08:05;16.30;58.40
76613;DHT22;65507;48.454;-2.058;2023-04-25T15:10:31;16.40;58.40
76613;DHT22;65507;48.454;-2.058;2023-04-25T15:12:57;16.40;58.40
76613;DHT22;65507;48.454;-2.058;2023-04-25T15:15:22;16.30;58.40
76613;DHT22;65507;48.454;-2.058;2023-04-25T15:17:49;16.30;58.50
76613;DHT22;65507;48.454;-2.058;2023-04-25T15:20:15;16.20;58.50
76613;DHT22;65507;48.454;-2.058;2023-04-25T15:22:43;16.10;58.70
76613;DHT22;65507;48.454;-2.058;2023-04-25T15:25:10;16.00;58.80
76613;DHT22;65507;48.454;-2.058;2023-04-25T15:27:37;16.00;58.90
76613;DHT22;65507;48.454;-2.058;2023-04-25T15:30:07;15.90;58.80